createdAt,value
2022-10-22T00:01:07.143Z,70.83
2022-10-22T00:03:34.061Z,70.50
2022-10-22T00:06:00.658Z,70.10
2022-10-22T00:08:27.373Z,69.93
2022-10-22T00:10:53.954Z,69.65
2022-10-22T00:13:20.892Z,70.33
2022-10-22T00:15:47.564Z,70.17
2022-10-22T00:18:14.241Z,70.54
2022-10-22T00:20:40.794Z,70.42
2022-10-22T00:23:07.525Z,69.80
2022-10-22T00:25:35.925Z,70.09
2022-10-22T00:28:03.331Z,70.04
2022-10-22T00:30:29.949Z,70.26
2022-10-22T00:32:56.471Z,69.99
2022-10-22T00:35:22.993Z,69.98
2022-10-22T00:37:49.535Z,70.27
2022-10-22T00:40:16.093Z,70.19
2022-10-22T00:42:43.053Z,70.53
2022-10-22T00:45:09.801Z,71.05
2022-10-22T00:47:57.252Z,70.84
2022-10-22T00:50:29.067Z,70.95
2022-10-22T00:52:57.576Z,70.53
2022-10-22T00:55:26.732Z,70.53
2022-10-22T00:57:56.139Z,70.73
2022-10-22T01:00:23.597Z,71.29
2022-10-22T01:02:51.563Z,71.53
2022-10-22T01:05:18.339Z,71.58
2022-10-22T01:07:49.345Z,71.27
2022-10-22T01:10:36.640Z,71.28
2022-10-22T01:13:24.425Z,71.34
2022-10-22T01:16:10.701Z,71.82
2022-10-22T01:18:41.340Z,71.45
2022-10-22T01:21:15.374Z,71.46
2022-10-22T01:24:26.110Z,73.04
2022-10-22T01:27:10.609Z,73.54
2022-10-22T01:29:42.525Z,74.48
2022-10-22T01:32:14.454Z,74.96
2022-10-22T01:34:44.363Z,75.13
2022-10-22T01:37:14.003Z,76.12
2022-10-22T01:39:44.234Z,76.85
2022-10-22T01:42:12.871Z,76.43
2022-10-22T01:44:39.563Z,76.79
2022-10-22T01:47:11.463Z,76.99
2022-10-22T01:50:05.955Z,77.86
2022-10-22T01:52:56.040Z,77.32
2022-10-22T01:55:32.657Z,76.64
2022-10-22T01:58:10.341Z,77.11
2022-10-22T02:00:39.975Z,77.15
2022-10-22T02:03:13.942Z,76.63
2022-10-22T02:05:49.650Z,76.30
2022-10-22T02:08:29.770Z,77.03
2022-10-22T02:10:58.450Z,77.11
2022-10-22T02:13:29.043Z,77.19
2022-10-22T02:15:58.149Z,77.10
2022-10-22T02:18:28.097Z,77.14
2022-10-22T02:20:54.898Z,76.82
2022-10-22T02:23:22.183Z,77.22
2022-10-22T02:25:56.290Z,77.14
2022-10-22T02:28:32.538Z,77.18
2022-10-22T02:31:08.479Z,76.65
2022-10-22T02:33:41.164Z,76.68
2022-10-22T02:36:08.721Z,76.54
2022-10-22T02:38:37.103Z,76.13
2022-10-22T02:41:04.309Z,75.73
2022-10-22T02:43:30.844Z,75.91
2022-10-22T02:45:57.561Z,76.18
2022-10-22T02:48:24.131Z,76.53
2022-10-22T02:50:50.781Z,77.13
2022-10-22T02:53:17.316Z,77.46
2022-10-22T02:55:43.848Z,78.32
2022-10-22T02:58:11.067Z,78.04
2022-10-22T03:00:37.639Z,77.34
2022-10-22T03:03:04.339Z,76.71
2022-10-22T03:05:30.929Z,77.14
2022-10-22T03:07:57.445Z,76.97
2022-10-22T03:10:24.021Z,76.51
2022-10-22T03:12:50.546Z,76.79
2022-10-22T03:15:17.267Z,76.37
2022-10-22T03:17:43.868Z,76.77
2022-10-22T03:20:10.902Z,76.79
2022-10-22T03:22:40.837Z,76.88
2022-10-22T03:25:12.390Z,77.43
2022-10-22T03:27:40.785Z,78.32
2022-10-22T03:30:08.206Z,78.77
2022-10-22T03:32:34.778Z,79.00
2022-10-22T03:35:01.351Z,78.64
2022-10-22T03:37:28.077Z,78.26
2022-10-22T03:39:55.458Z,78.08
2022-10-22T03:42:22.734Z,78.12
2022-10-22T03:44:49.420Z,77.10
2022-10-22T03:47:15.972Z,77.75
2022-10-22T03:49:42.497Z,78.05
2022-10-22T03:52:14.565Z,78.30
2022-10-22T03:54:42.227Z,77.76
2022-10-22T03:57:09.560Z,78.27
2022-10-22T03:59:42.509Z,77.92
2022-10-22T04:02:10.090Z,78.14
2022-10-22T04:04:37.705Z,78.07
2022-10-22T04:07:05.780Z,78.16
2022-10-22T04:09:33.232Z,77.93
2022-10-22T04:12:00.048Z,78.26
2022-10-22T04:14:26.831Z,78.05
2022-10-22T04:16:53.470Z,78.47
2022-10-22T04:19:20.027Z,78.62
2022-10-22T04:21:46.551Z,78.26
2022-10-22T04:24:13.198Z,78.55
2022-10-22T04:26:39.778Z,78.45
2022-10-22T04:29:07.415Z,78.64
2022-10-22T04:31:35.234Z,79.56
2022-10-22T04:34:02.101Z,79.98
2022-10-22T04:36:29.536Z,80.55
2022-10-22T04:39:00.827Z,80.26
2022-10-22T04:41:29.812Z,80.12
2022-10-22T04:43:57.637Z,79.70
2022-10-22T04:46:26.559Z,79.69
2022-10-22T04:48:53.489Z,79.77
2022-10-22T04:51:22.558Z,79.89
2022-10-22T04:53:49.771Z,80.58
2022-10-22T04:56:28.930Z,80.73
2022-10-22T04:59:01.269Z,80.89
2022-10-22T05:01:36.934Z,81.14
2022-10-22T05:04:08.241Z,81.27
2022-10-22T05:06:36.702Z,80.93
2022-10-22T05:09:09.339Z,81.24
2022-10-22T05:11:38.121Z,80.68
2022-10-22T05:14:06.414Z,80.54
2022-10-22T05:16:34.302Z,80.80
2022-10-22T05:19:02.069Z,80.44
2022-10-22T05:21:29.055Z,80.55
2022-10-22T05:23:56.943Z,80.96
2022-10-22T05:26:25.114Z,80.96
2022-10-22T05:28:52.308Z,80.79
2022-10-22T05:31:19.852Z,81.13
2022-10-22T05:33:47.751Z,80.93
2022-10-22T05:36:18.387Z,81.13
2022-10-22T05:38:45.651Z,80.32
2022-10-22T05:41:15.041Z,80.11
2022-10-22T05:43:41.639Z,79.58
2022-10-22T05:46:13.434Z,79.32
2022-10-22T05:48:40.595Z,79.77
2022-10-22T05:51:12.193Z,80.04
2022-10-22T05:53:41.139Z,80.45
2022-10-22T05:56:15.889Z,80.49
2022-10-22T05:58:44.622Z,81.03
2022-10-22T06:01:17.328Z,81.10
2022-10-22T06:03:45.345Z,81.93
2022-10-22T06:06:30.846Z,80.84
2022-10-22T06:09:07.066Z,80.21
2022-10-22T06:11:35.220Z,80.44
2022-10-22T06:14:02.219Z,79.54
2022-10-22T06:16:32.578Z,79.50
2022-10-22T06:19:02.140Z,78.59
2022-10-22T06:21:29.677Z,78.44
2022-10-22T06:23:57.137Z,78.17
2022-10-22T06:26:23.828Z,77.36
2022-10-22T06:28:50.354Z,77.05
2022-10-22T06:31:16.937Z,75.99
2022-10-22T06:33:43.524Z,75.53
2022-10-22T06:36:12.761Z,75.20
2022-10-22T06:38:39.806Z,74.86
2022-10-22T06:41:09.743Z,74.44
2022-10-22T06:43:36.991Z,74.85
2022-10-22T06:46:07.460Z,74.94
2022-10-22T06:48:36.043Z,74.51
2022-10-22T06:51:05.388Z,74.10
2022-10-22T06:53:32.503Z,74.23
2022-10-22T06:55:59.007Z,73.65
2022-10-22T06:58:25.592Z,73.60
2022-10-22T07:01:02.094Z,74.01
2022-10-22T07:03:28.794Z,74.17
2022-10-22T07:05:55.397Z,73.62
2022-10-22T07:08:21.993Z,73.46
2022-10-22T07:10:48.519Z,73.46
2022-10-22T07:13:15.975Z,72.88
2022-10-22T07:15:42.575Z,72.80
2022-10-22T07:18:09.103Z,72.93
2022-10-22T07:20:35.831Z,72.41
2022-10-22T07:23:02.382Z,71.93
2022-10-22T07:25:28.906Z,71.39
2022-10-22T07:27:55.453Z,71.20
2022-10-22T07:30:21.999Z,69.20
2022-10-22T07:32:48.516Z,68.79
2022-10-22T07:35:15.211Z,69.09
2022-10-22T07:37:42.358Z,69.55
2022-10-22T07:40:09.561Z,69.57
2022-10-22T07:42:36.061Z,69.07
2022-10-22T07:45:02.920Z,69.29
2022-10-22T07:47:29.481Z,69.63
2022-10-22T07:49:56.078Z,69.88
2022-10-22T07:52:22.706Z,70.18
2022-10-22T07:54:49.284Z,71.13
2022-10-22T07:57:15.790Z,70.99
2022-10-22T07:59:42.356Z,71.03
2022-10-22T08:02:11.346Z,70.97
2022-10-22T08:04:38.155Z,71.24
2022-10-22T08:07:05.392Z,71.75
2022-10-22T08:09:31.972Z,71.61
2022-10-22T08:11:58.553Z,71.43
2022-10-22T08:14:25.105Z,71.45
2022-10-22T08:16:51.891Z,71.37
2022-10-22T08:19:20.794Z,71.24
2022-10-22T08:21:48.607Z,71.09
2022-10-22T08:24:15.124Z,70.67
2022-10-22T08:26:42.579Z,70.50
2022-10-22T08:29:09.516Z,70.03
2022-10-22T08:31:36.114Z,70.96
2022-10-22T08:34:02.671Z,71.19
2022-10-22T08:36:29.229Z,71.38
2022-10-22T08:38:55.746Z,70.59
2022-10-22T08:41:23.909Z,70.65
2022-10-22T08:44:32.786Z,70.60
2022-10-22T08:47:22.389Z,70.28
2022-10-22T08:49:49.681Z,69.87
2022-10-22T08:52:18.879Z,69.41
2022-10-22T08:55:00.079Z,68.59
2022-10-22T08:57:41.530Z,69.00
2022-10-22T09:00:46.124Z,70.33
2022-10-22T09:03:26.979Z,71.32
2022-10-22T09:06:05.675Z,69.90
2022-10-22T09:08:32.560Z,70.44
2022-10-22T09:11:06.876Z,70.37
2022-10-22T09:13:33.497Z,69.20
2022-10-22T09:16:11.305Z,68.14
2022-10-22T09:18:59.505Z,67.82
2022-10-22T09:21:55.003Z,67.57
2022-10-22T09:24:38.790Z,67.70
2022-10-22T09:27:26.853Z,67.76
2022-10-22T09:29:53.457Z,68.12
2022-10-22T09:32:20.290Z,68.18
2022-10-22T09:34:49.008Z,68.13
2022-10-22T09:37:22.865Z,68.15
2022-10-22T09:39:52.413Z,68.80
2022-10-22T09:42:20.576Z,68.66
2022-10-22T09:44:59.401Z,68.39
2022-10-22T09:48:00.659Z,68.51
2022-10-22T09:50:28.328Z,68.51
2022-10-22T09:52:59.649Z,68.42
2022-10-22T09:55:26.809Z,68.56
2022-10-22T09:57:58.349Z,68.29
2022-10-22T10:00:26.120Z,69.02
2022-10-22T10:03:00.326Z,68.58
2022-10-22T10:05:33.628Z,69.17
2022-10-22T10:08:12.360Z,69.57
2022-10-22T10:10:48.036Z,68.94
2022-10-22T10:13:33.236Z,69.57
2022-10-22T10:16:02.722Z,69.86
2022-10-22T10:18:55.364Z,70.04
2022-10-22T10:21:35.049Z,71.56
2022-10-22T10:24:21.886Z,72.41
2022-10-22T10:26:54.500Z,73.15
2022-10-22T10:29:46.884Z,73.17
2022-10-22T10:32:26.408Z,72.70
2022-10-22T10:34:52.928Z,71.90
2022-10-22T10:37:24.902Z,74.43
2022-10-22T10:40:19.083Z,75.98
2022-10-22T10:43:32.686Z,76.78
2022-10-22T10:46:02.304Z,75.38
2022-10-22T10:48:51.179Z,75.76
2022-10-22T10:51:53.447Z,76.82
2022-10-22T10:57:13.504Z,75.69
2022-10-22T10:59:45.118Z,75.52
2022-10-22T11:02:52.477Z,76.11
2022-10-22T11:05:21.782Z,76.81
2022-10-22T11:07:56.130Z,77.96
2022-10-22T11:10:36.585Z,79.46
2022-10-22T11:13:14.237Z,78.77
2022-10-22T11:15:44.996Z,79.47
2022-10-22T11:18:16.235Z,77.61
2022-10-22T11:21:01.291Z,77.92
2022-10-22T11:23:55.025Z,78.77
2022-10-22T11:26:30.900Z,79.87
2022-10-22T11:29:01.014Z,79.65
2022-10-22T11:31:30.519Z,80.47
2022-10-22T11:34:41.816Z,80.89
2022-10-22T11:37:11.915Z,81.79
2022-10-22T11:39:43.671Z,82.45
2022-10-22T11:42:16.310Z,83.53
2022-10-22T11:45:03.999Z,84.53
2022-10-22T11:47:51.584Z,85.68
2022-10-22T11:50:25.798Z,84.70
2022-10-22T11:53:08.493Z,84.42
2022-10-22T11:55:46.516Z,85.13
2022-10-22T11:58:28.503Z,83.98
2022-10-22T12:00:59.056Z,84.52
2022-10-22T12:03:28.651Z,85.42
2022-10-22T12:06:12.011Z,86.14
2022-10-22T12:08:46.146Z,85.83
2022-10-22T12:11:35.522Z,86.19
2022-10-22T12:14:29.286Z,85.60
2022-10-22T12:16:58.028Z,82.97
2022-10-22T12:19:46.459Z,81.80
2022-10-22T12:22:21.079Z,82.51
2022-10-22T12:24:50.051Z,85.11
2022-10-22T12:27:29.497Z,86.05
2022-10-22T12:30:01.124Z,86.29
2022-10-22T12:32:41.579Z,85.31
2022-10-22T12:35:15.895Z,85.96
2022-10-22T12:37:42.586Z,86.51
2022-10-22T12:40:36.685Z,86.18
2022-10-22T12:43:15.554Z,87.02
2022-10-22T12:45:45.430Z,85.56
2022-10-22T12:48:17.318Z,85.67
2022-10-22T12:50:48.919Z,85.47
2022-10-22T12:53:29.674Z,84.06
2022-10-22T12:56:01.712Z,84.16
2022-10-22T12:58:39.972Z,84.65
2022-10-22T13:01:06.911Z,85.62
2022-10-22T13:03:35.549Z,86.09
2022-10-22T13:06:20.465Z,87.85
2022-10-22T13:09:03.667Z,89.22
2022-10-22T13:12:04.831Z,89.10
2022-10-22T13:14:38.150Z,88.77
2022-10-22T13:17:15.247Z,89.75
2022-10-22T13:19:50.861Z,90.56
2022-10-22T13:22:37.127Z,91.47
2022-10-22T13:25:14.700Z,92.39
2022-10-22T13:27:48.518Z,92.90
2022-10-22T13:30:26.603Z,93.25
2022-10-22T13:32:56.536Z,93.42
2022-10-22T13:35:30.214Z,92.48
2022-10-22T13:37:56.826Z,92.60
2022-10-22T13:40:23.450Z,92.00
2022-10-22T13:42:50.046Z,92.47
2022-10-22T13:45:17.461Z,93.01
2022-10-22T13:47:51.884Z,92.70
2022-10-22T13:50:20.879Z,93.30
2022-10-22T13:52:52.884Z,94.18
2022-10-22T13:55:19.453Z,93.95
2022-10-22T13:57:46.360Z,94.45
2022-10-22T14:00:15.879Z,94.77
2022-10-22T14:02:44.133Z,94.51
2022-10-22T14:05:11.316Z,95.08
2022-10-22T14:07:39.176Z,94.98
2022-10-22T14:10:19.541Z,95.44
2022-10-22T14:12:52.309Z,95.73
2022-10-22T14:15:24.056Z,95.65
2022-10-22T14:17:55.102Z,95.06
2022-10-22T14:20:25.643Z,95.70
2022-10-22T14:22:52.275Z,96.74
2022-10-22T14:25:22.041Z,96.91
2022-10-22T14:27:48.621Z,96.98
2022-10-22T14:30:25.716Z,95.05
2022-10-22T14:32:52.608Z,94.31
2022-10-22T14:35:22.607Z,94.95
2022-10-22T14:37:49.611Z,94.47
2022-10-22T14:40:19.660Z,94.35
2022-10-22T14:42:48.145Z,94.22
2022-10-22T14:45:23.670Z,94.73
2022-10-22T14:47:51.753Z,95.80
2022-10-22T14:50:18.982Z,94.32
2022-10-22T14:52:45.621Z,94.67
2022-10-22T14:55:15.032Z,95.26
2022-10-22T14:57:42.291Z,95.61
2022-10-22T15:00:12.565Z,94.69
2022-10-22T15:02:39.357Z,94.06
2022-10-22T15:05:07.006Z,94.59
2022-10-22T15:07:33.663Z,94.79
2022-10-22T15:10:00.331Z,96.05
2022-10-22T15:12:27.088Z,96.78
2022-10-22T15:14:53.631Z,96.37
2022-10-22T15:17:20.224Z,96.87
2022-10-22T15:19:46.864Z,96.55
2022-10-22T15:22:14.132Z,96.22
2022-10-22T15:24:44.659Z,95.94
2022-10-22T15:27:14.313Z,95.57
2022-10-22T15:29:41.973Z,95.74
2022-10-22T15:32:10.537Z,95.57
2022-10-22T15:34:40.126Z,95.94
2022-10-22T15:37:10.974Z,95.75
2022-10-22T15:39:42.139Z,96.24
2022-10-22T15:42:09.931Z,96.19
2022-10-22T15:44:36.711Z,95.21
2022-10-22T15:47:04.447Z,95.47
2022-10-22T15:49:31.179Z,95.72
2022-10-22T15:51:57.737Z,96.94
2022-10-22T15:54:29.001Z,96.58
2022-10-22T15:57:08.438Z,96.30
2022-10-22T15:59:36.039Z,95.33
2022-10-22T16:02:03.001Z,96.08
2022-10-22T16:04:29.665Z,95.95
2022-10-22T16:06:57.982Z,95.09
2022-10-22T16:09:27.279Z,96.48
2022-10-22T16:11:55.618Z,96.57
2022-10-22T16:14:25.019Z,97.06
2022-10-22T16:16:54.306Z,97.04
2022-10-22T16:19:23.092Z,98.16
2022-10-22T16:21:51.462Z,98.24
2022-10-22T16:24:18.757Z,98.51
2022-10-22T16:26:47.258Z,98.04
2022-10-22T16:29:14.499Z,98.03
2022-10-22T16:31:43.687Z,98.29
2022-10-22T16:34:10.835Z,97.94
2022-10-22T16:36:38.418Z,97.84
2022-10-22T16:39:06.598Z,98.00
2022-10-22T16:41:36.558Z,98.08
2022-10-22T16:44:06.191Z,98.38
2022-10-22T16:46:33.545Z,98.48
2022-10-22T16:49:00.547Z,97.96
2022-10-22T16:51:28.493Z,98.44
2022-10-22T16:53:57.058Z,99.13
2022-10-22T16:56:25.279Z,99.50
2022-10-22T16:58:54.743Z,99.50
2022-10-22T17:01:23.378Z,99.18
2022-10-22T17:03:50.135Z,99.54
2022-10-22T17:06:17.041Z,99.52
2022-10-22T17:08:43.648Z,99.52
2022-10-22T17:11:18.917Z,98.59
2022-10-22T17:13:49.055Z,98.72
2022-10-22T17:16:17.816Z,98.67
2022-10-22T17:21:18.819Z,98.07
2022-10-22T17:23:46.764Z,97.52
2022-10-22T17:26:17.299Z,96.57
2022-10-22T17:28:44.606Z,97.35
2022-10-22T17:31:20.668Z,97.33
2022-10-22T17:33:49.044Z,96.93
2022-10-22T17:36:17.487Z,96.15
2022-10-22T17:38:47.802Z,97.06
2022-10-22T17:41:17.900Z,97.59
2022-10-22T17:46:30.336Z,97.34
2022-10-22T17:48:59.194Z,97.83
2022-10-22T17:51:27.112Z,97.93
2022-10-22T17:53:53.910Z,97.78
2022-10-22T17:56:22.899Z,98.54
2022-10-22T17:58:50.117Z,98.08
2022-10-22T18:01:21.243Z,97.70
2022-10-22T18:03:48.042Z,97.50
2022-10-22T18:06:15.048Z,97.72
2022-10-22T18:08:41.727Z,97.75
2022-10-22T18:11:10.313Z,96.82
2022-10-22T18:13:36.931Z,97.38
2022-10-22T18:16:04.690Z,97.95
2022-10-22T18:18:31.620Z,97.63
2022-10-22T18:20:58.480Z,97.61
2022-10-22T18:23:25.018Z,96.81
2022-10-22T18:25:51.665Z,96.38
2022-10-22T18:28:19.404Z,96.10
2022-10-22T18:30:48.548Z,96.77
2022-10-22T18:33:17.771Z,96.54
2022-10-22T18:35:46.231Z,96.91
2022-10-22T18:38:12.850Z,97.58
2022-10-22T18:40:48.651Z,97.66
2022-10-22T18:43:16.569Z,97.57
2022-10-22T18:45:44.261Z,97.84
2022-10-22T18:48:13.177Z,97.54
2022-10-22T18:50:39.879Z,97.45
2022-10-22T18:53:06.562Z,97.38
2022-10-22T18:55:34.213Z,96.93
2022-10-22T18:58:00.710Z,96.94
2022-10-22T19:00:27.422Z,96.07
2022-10-22T19:02:54.953Z,96.37
2022-10-22T19:05:21.619Z,96.53
2022-10-22T19:07:50.037Z,96.74
2022-10-22T19:10:17.432Z,96.85
2022-10-22T19:12:44.030Z,96.40
2022-10-22T19:15:11.024Z,97.07
2022-10-22T19:17:37.637Z,96.77
2022-10-22T19:20:04.801Z,97.02
2022-10-22T19:22:32.242Z,96.14
2022-10-22T19:25:01.310Z,96.61
2022-10-22T19:27:27.877Z,96.26
2022-10-22T19:29:54.441Z,97.03
2022-10-22T19:32:21.071Z,96.21
2022-10-22T19:34:47.648Z,96.45
2022-10-22T19:37:14.291Z,97.14
2022-10-22T19:39:41.501Z,97.75
2022-10-22T19:42:08.092Z,97.60
2022-10-22T19:44:34.715Z,97.18
2022-10-22T19:47:01.420Z,96.82
2022-10-22T19:49:29.173Z,96.80
2022-10-22T19:51:55.705Z,97.08
2022-10-22T19:54:22.417Z,97.14
2022-10-22T19:56:50.317Z,96.87
2022-10-22T19:59:17.975Z,96.45
2022-10-22T20:01:44.478Z,96.61
2022-10-22T20:04:15.380Z,95.87
2022-10-22T20:06:43.121Z,96.10
2022-10-22T20:09:11.267Z,95.88
2022-10-22T20:11:37.933Z,95.68
2022-10-22T20:14:04.549Z,95.88
2022-10-22T20:16:31.707Z,95.88
2022-10-22T20:19:03.854Z,96.49
2022-10-22T20:21:30.761Z,96.70
2022-10-22T20:23:57.579Z,97.06
2022-10-22T20:26:27.888Z,96.69
2022-10-22T20:28:56.397Z,97.73
2022-10-22T20:31:25.083Z,97.92
2022-10-22T20:33:51.697Z,97.89
2022-10-22T20:36:23.216Z,97.77
2022-10-22T20:38:50.902Z,97.67
2022-10-22T20:41:22.669Z,98.04
2022-10-22T20:43:51.077Z,97.31
2022-10-22T20:46:31.907Z,98.30
2022-10-22T20:49:07.180Z,98.17
2022-10-22T20:51:35.925Z,97.87
2022-10-22T20:54:02.858Z,98.42
2022-10-22T20:56:29.531Z,98.32
2022-10-22T20:59:04.762Z,98.70
2022-10-22T21:01:33.937Z,98.80
2022-10-22T21:04:06.463Z,99.32
2022-10-22T21:06:34.262Z,99.41
2022-10-22T21:09:00.878Z,99.68
2022-10-22T21:11:27.456Z,99.63
2022-10-22T21:13:54.053Z,99.66
2022-10-22T21:16:20.645Z,99.63
2022-10-22T21:18:47.565Z,99.95
2022-10-22T21:21:17.023Z,99.95
2022-10-22T21:23:43.935Z,100.00
2022-10-22T21:26:10.669Z,100.00
2022-10-22T21:28:37.943Z,100.00
2022-10-22T21:31:06.994Z,99.69
2022-10-22T21:33:38.097Z,99.24
2022-10-22T21:36:06.167Z,99.50
2022-10-22T21:38:33.410Z,99.33
2022-10-22T21:41:04.631Z,99.21
2022-10-22T21:43:31.212Z,99.29
2022-10-22T21:46:09.029Z,99.13
2022-10-22T21:48:36.951Z,98.67
2022-10-22T21:51:18.643Z,99.19
2022-10-22T21:53:46.052Z,98.32
2022-10-22T21:56:27.452Z,98.14
2022-10-22T21:58:54.253Z,98.79
2022-10-22T22:01:21.438Z,98.74
2022-10-22T22:03:49.968Z,97.81
2022-10-22T22:06:21.247Z,98.17
2022-10-22T22:08:49.530Z,98.48
2022-10-22T22:11:19.078Z,98.29
2022-10-22T22:13:45.672Z,97.74
2022-10-22T22:16:14.896Z,97.59
2022-10-22T22:18:42.207Z,96.77
2022-10-22T22:21:15.557Z,96.97
2022-10-22T22:23:44.909Z,97.79
2022-10-22T22:26:12.844Z,98.07
2022-10-22T22:28:39.692Z,98.05
2022-10-22T22:31:23.565Z,98.07
2022-10-22T22:33:50.318Z,98.10
2022-10-22T22:36:17.572Z,98.53
2022-10-22T22:38:44.144Z,98.35
2022-10-22T22:41:10.692Z,98.98
2022-10-22T22:43:37.765Z,98.73
2022-10-22T22:46:11.571Z,98.56
2022-10-22T22:48:38.405Z,98.58
2022-10-22T22:51:06.541Z,98.81
2022-10-22T22:53:34.527Z,98.76
2022-10-22T22:56:14.661Z,98.32
2022-10-22T22:58:41.831Z,98.91
2022-10-22T23:01:35.980Z,99.36
2022-10-22T23:04:11.843Z,99.48
2022-10-22T23:06:38.793Z,99.33
2022-10-22T23:09:08.163Z,98.84
2022-10-22T23:11:35.310Z,99.01
2022-10-22T23:14:04.348Z,99.23
2022-10-22T23:16:33.511Z,99.34
2022-10-22T23:19:01.158Z,99.25
2022-10-22T23:21:33.427Z,99.14
2022-10-22T23:24:02.530Z,99.69
2022-10-22T23:26:32.024Z,99.96
2022-10-22T23:29:02.753Z,99.46
2022-10-22T23:31:29.870Z,99.57
2022-10-22T23:33:56.611Z,99.57
2022-10-22T23:36:23.187Z,99.62
2022-10-22T23:38:50.349Z,99.44
2022-10-22T23:41:17.193Z,99.46
2022-10-22T23:43:43.942Z,99.69
2022-10-22T23:46:13.051Z,99.95
2022-10-22T23:48:40.319Z,100.00
2022-10-22T23:51:10.352Z,99.28
2022-10-22T23:53:37.367Z,99.39
2022-10-22T23:56:09.019Z,99.68
2022-10-22T23:58:36.605Z,100.00
